Adolph, MN

2:16 AM CDT on September 18, 2014 (GMT -0500)
Hermantown - Loren | Change Station
CLOSE
Current Station
Personal Weather Station
Location: Duluth, MN
Elevation: 1410 ft
Nearby Weather Stations

Elev 1410 ft 46.86 °N, 92.22 °W | Updated 4 minutes ago

Overcast
Overcast
42.9 °F
Feels Like 43 °F
N
2.0
Wind Variable Wind from ENE

Today
High -- | Low -- °F
--% Chance of Precip.
Yesterday
High -- | Low -- °F
Precip. -- in
6:50 AM 7:14 PM
Waning Crescent, 29% visible
Pressure 30.16 in
Visibility 10.0 miles
Clouds Overcast 1200 ft
Windchill 43 °F
Dew Point 39 °F
Humidity 86%
Rainfall 0.00 in
Snow Depth Not available.
UV 0 out of 12
Pollen 1.90 out of 12
Air Quality Not available.
Flu Activity Not available.
METAR KDLH 180655Z 10012KT 10SM OVC012 07/03 A3013 RMK AO2 SLP212 T00670033 VISNO RWY 27

More Conditions Fewer Conditions

Pressure 30.16 in
Visibility 10.0 miles
Clouds Overcast 1200 ft
Windchill 43 °F
Dew Point 39 °F
Humidity 86%
Rainfall 0.00 in
Snow Depth Not available.
UV 0 out of 12
Pollen 1.90 out of 12
Air Quality Not available.
Flu Activity Not available.
METAR KDLH 180655Z 10012KT 10SM OVC012 07/03 A3013 RMK AO2 SLP212 T00670033 VISNO RWY 27

More Conditions Fewer Conditions

10-Day Weather Forecast

Almanac

Astronomy

Sep. 18, 2014 Rise Set
Actual Time 6:50 AM CDT 7:14 PM CDT
Civil Twilight 6:20 AM CDT 7:44 PM CDT
Nautical Twilight 5:44 AM CDT 8:20 PM CDT
Astronomical Twilight 5:06 AM CDT 8:57 PM CDT
Moon 1:28 AM CDT 4:19 PM CDT
Length of Visible Light 13h 24m
Length of Day
12h 24m
Tomorrow will be 3m 18s shorter.
Waning Crescent, 29% of the Moon is Illuminated
Today
Waning Crescent
Sep 24
New
Oct 1
First Quarter
Oct 8
Full
Oct 15
Last Quarter

Today's Extremes

State Highs State Lows

Community

WunderPhotos

Upload Photos

1,754,299 photos uploaded!

Nearby

Snow Depth

Station Depth Elevation
No new snow has been reported.

Earthquake Activity

City Distance Mag. Time & Date
No recent earthquake activity has been reported nearby.
Minimum magnitude displayed is 2.5.

Coastal Water Temperatures

Place Temperature
Duluth, MN 60.1 °F

Nearby Weather Stations